Time;durP1;ratioP1;P1;durP2;ratioP2;P2;SDS_P1;SDS_P2;PMS_P1;PMS_P2;Temp;Humidity;BMP_temperature;BMP_pressure;BME280_temperature;BME280_humidity;BME280_pressure;Samples;Min_cycle;Max_cycle;Signal;HPM_P1;HPM_P2
2022/05/23 00:02:20;;;;;;;4.67;2.40;;;;;;;10.23;100.00;100585.38;4962923;28;20715;-75
2022/05/23 00:04:47;;;;;;;6.83;2.53;;;;;;;10.19;100.00;100579.38;4968359;28;20204;-74
2022/05/23 00:07:16;;;;;;;3.07;2.30;;;;;;;10.15;100.00;100582.97;4939683;28;20204;-75
2022/05/23 00:09:43;;;;;;;5.03;2.77;;;;;;;10.24;100.00;100576.66;4962138;28;20210;-75
2022/05/23 00:12:10;;;;;;;3.60;2.33;;;;;;;10.19;100.00;100584.59;4947671;28;20214;-75
2022/05/23 00:14:37;;;;;;;3.90;2.13;;;;;;;10.12;100.00;100584.78;4930520;29;20288;-75
2022/05/23 00:17:04;;;;;;;3.17;2.40;;;;;;;10.09;100.00;100582.25;4927431;28;20195;-75
2022/05/23 00:19:31;;;;;;;4.17;2.30;;;;;;;10.05;100.00;100578.88;4950007;28;20749;-75
2022/05/23 00:21:58;;;;;;;3.30;2.70;;;;;;;10.01;100.00;100585.06;4938787;28;20324;-75
2022/05/23 00:24:24;;;;;;;2.80;2.37;;;;;;;10.02;100.00;100579.78;4967057;28;20215;-75
2022/05/23 00:26:51;;;;;;;5.10;2.80;;;;;;;9.98;100.00;100580.75;4958773;28;20211;-75
2022/05/23 00:29:17;;;;;;;2.67;2.43;;;;;;;9.94;100.00;100573.94;4958193;28;20243;-75
2022/05/23 00:37:17;;;;;;;3.77;2.40;;;;;;;9.94;100.00;100567.88;4870734;29;20216;-75
2022/05/23 00:39:43;;;;;;;3.90;2.30;;;;;;;9.92;100.00;100570.50;4883205;29;20689;-75
2022/05/23 00:45:00;;;;;;;5.27;2.33;;;;;;;9.77;100.00;100571.72;4948665;29;20225;-75
2022/05/23 00:47:28;;;;;;;4.30;2.37;;;;;;;9.74;100.00;100568.31;4960049;28;20202;-75
2022/05/23 00:49:54;;;;;;;2.77;2.50;;;;;;;9.67;100.00;100565.00;4931274;29;20672;-75
2022/05/23 00:52:27;;;;;;;4.40;2.37;;;;;;;9.62;100.00;100559.03;4945121;28;20232;-75
2022/05/23 00:54:57;;;;;;;3.83;2.20;;;;;;;9.53;100.00;100554.06;4953657;28;20205;-74
2022/05/23 00:57:29;;;;;;;5.47;2.53;;;;;;;9.51;100.00;100551.50;4960896;28;20688;-75
2022/05/23 00:59:55;;;;;;;4.47;2.60;;;;;;;9.48;100.00;100551.59;4937934;29;20240;-75
2022/05/23 01:02:23;;;;;;;4.53;2.40;;;;;;;9.50;100.00;100551.53;4939544;28;20230;-75
2022/05/23 01:04:51;;;;;;;4.63;2.30;;;;;;;9.52;100.00;100547.16;4942397;28;20202;-75
2022/05/23 01:07:18;;;;;;;3.40;2.70;;;;;;;9.41;100.00;100543.06;4957160;28;20190;-75
2022/05/23 01:09:45;;;;;;;2.87;2.60;;;;;;;9.45;100.00;100541.22;4968751;28;20207;-75
2022/05/23 01:12:12;;;;;;;3.37;2.50;;;;;;;9.40;100.00;100530.06;4954560;28;20223;-74
2022/05/23 01:14:47;;;;;;;2.73;2.43;;;;;;;9.53;100.00;100528.88;4943219;28;20194;-75
2022/05/23 01:17:13;;;;;;;3.53;2.50;;;;;;;9.45;100.00;100517.81;4938053;28;20678;-75
2022/05/23 01:19:40;;;;;;;3.37;2.90;;;;;;;9.46;100.00;100520.38;4968712;28;20196;-75
2022/05/23 01:22:17;;;;;;;4.90;2.87;;;;;;;9.47;100.00;100518.63;4940765;28;20234;-75
2022/05/23 01:24:58;;;;;;;3.13;2.67;;;;;;;9.46;100.00;100515.19;4951914;28;20226;-75
2022/05/23 01:27:28;;;;;;;3.67;2.93;;;;;;;9.45;100.00;100515.22;4936733;28;20299;-75
2022/05/23 01:29:55;;;;;;;4.07;2.60;;;;;;;9.45;100.00;100521.25;4934377;29;20199;-75
2022/05/23 01:32:22;;;;;;;3.80;3.00;;;;;;;9.47;100.00;100516.03;4926283;28;20781;-74
2022/05/23 01:34:50;;;;;;;4.73;2.73;;;;;;;9.43;100.00;100520.44;4955474;28;20195;-75
2022/05/23 01:37:20;;;;;;;3.57;2.70;;;;;;;9.45;100.00;100517.81;4968732;28;20282;-75
2022/05/23 01:39:55;;;;;;;3.43;2.80;;;;;;;9.48;100.00;100508.19;4941545;29;20220;-75
2022/05/23 01:42:36;;;;;;;2.73;2.30;;;;;;;9.43;100.00;100504.00;4928500;28;20223;-75
2022/05/23 01:45:04;;;;;;;4.83;2.80;;;;;;;9.38;100.00;100511.88;4953924;28;20236;-75
2022/05/23 01:47:31;;;;;;;3.67;2.80;;;;;;;9.41;100.00;100500.53;4945740;28;20195;-75
2022/05/23 01:50:00;;;;;;;3.40;2.77;;;;;;;9.30;100.00;100495.59;4933241;29;20292;-75
2022/05/23 01:52:41;;;;;;;2.97;2.50;;;;;;;9.24;100.00;100494.00;4935348;29;20233;-75
2022/05/23 01:55:21;;;;;;;3.97;2.70;;;;;;;9.25;100.00;100487.91;4945665;28;20209;-75
2022/05/23 01:58:06;;;;;;;4.73;2.60;;;;;;;9.25;100.00;100485.31;4944266;28;20593;-74
2022/05/23 02:03:31;;;;;;;7.57;3.30;;;;;;;9.32;100.00;100477.34;4947462;28;20220;-75
2022/05/23 02:05:58;;;;;;;6.23;2.70;;;;;;;9.23;100.00;100470.59;4934934;29;20205;-74
2022/05/23 02:08:24;;;;;;;3.77;2.50;;;;;;;9.26;100.00;100475.75;4949484;28;20204;-74
2022/05/23 02:10:53;;;;;;;6.60;3.07;;;;;;;9.16;100.00;100480.28;4935101;28;20669;-75
2022/05/23 02:13:26;;;;;;;4.10;2.63;;;;;;;9.16;100.00;100474.25;4953660;28;20231;-74
2022/05/23 02:15:52;;;;;;;4.83;2.67;;;;;;;9.15;100.00;100476.00;4932865;29;20204;-75
2022/05/23 02:18:38;;;;;;;4.77;3.17;;;;;;;9.14;100.00;100469.06;4954614;28;20214;-75
2022/05/23 02:21:05;;;;;;;3.30;3.00;;;;;;;9.24;100.00;100480.97;4957415;28;20212;-75
2022/05/23 02:23:32;;;;;;;4.93;3.17;;;;;;;9.32;100.00;100479.94;4940411;29;20680;-75
2022/05/23 02:25:59;;;;;;;3.90;2.77;;;;;;;9.28;100.00;100474.81;4948685;28;20240;-75
2022/05/23 02:28:52;;;;;;;3.73;2.83;;;;;;;9.23;100.00;100486.22;4958214;28;20205;-75
2022/05/23 02:31:28;;;;;;;6.23;3.20;;;;;;;9.06;100.00;100476.22;4966102;28;20701;-75
2022/05/23 02:33:58;;;;;;;8.53;3.27;;;;;;;9.02;100.00;100477.16;4944972;29;20254;-75
2022/05/23 02:36:32;;;;;;;4.23;3.03;;;;;;;9.10;100.00;100483.03;4939800;29;20211;-75
2022/05/23 02:39:01;;;;;;;4.77;3.30;;;;;;;8.98;100.00;100476.34;4939209;29;20197;-75
2022/05/23 02:45:17;;;;;;;4.43;2.67;;;;;;;9.05;100.00;100467.53;4948179;28;20300;-75
2022/05/23 02:47:47;;;;;;;6.20;3.20;;;;;;;8.99;100.00;100474.59;4948929;28;20295;-75
2022/05/23 02:50:14;;;;;;;3.87;2.80;;;;;;;9.12;100.00;100476.06;4953230;28;20578;-75
2022/05/23 02:52:44;;;;;;;4.90;2.50;;;;;;;9.01;100.00;100478.06;4945319;28;20226;-75
2022/05/23 02:55:20;;;;;;;3.27;2.40;;;;;;;8.90;100.00;100480.88;4938827;28;20202;-75
2022/05/23 02:57:48;;;;;;;8.87;3.60;;;;;;;9.05;100.00;100482.28;4941553;28;20207;-75
2022/05/23 03:00:20;;;;;;;5.50;3.13;;;;;;;8.94;100.00;100477.31;4944288;28;20203;-75
2022/05/23 03:03:03;;;;;;;3.13;2.83;;;;;;;8.95;100.00;100476.41;4942906;29;20221;-75
2022/05/23 03:05:50;;;;;;;3.13;2.83;;;;;;;9.18;100.00;100468.13;4943369;29;20683;-74
2022/05/23 03:08:25;;;;;;;3.93;2.90;;;;;;;9.07;100.00;100481.34;4969385;28;20206;-75
2022/05/23 03:10:55;;;;;;;3.57;2.90;;;;;;;9.08;100.00;100470.06;4959105;28;20200;-75
2022/05/23 03:13:22;;;;;;;4.37;3.07;;;;;;;9.05;100.00;100474.47;4936155;28;20339;-75
2022/05/23 03:15:50;;;;;;;4.30;3.30;;;;;;;8.88;100.00;100469.63;4940788;29;20593;-75
2022/05/23 03:18:17;;;;;;;6.13;2.93;;;;;;;8.82;100.00;100473.22;4932262;29;20228;-75
2022/05/23 03:20:45;;;;;;;4.47;3.40;;;;;;;8.75;100.00;100469.06;4940605;28;20198;-75
2022/05/23 03:28:43;;;;;;;5.17;3.20;;;;;;;8.76;100.00;100482.91;4943068;28;20336;-75
2022/05/23 03:31:12;;;;;;;4.07;3.03;;;;;;;8.77;100.00;100479.44;4965723;28;20204;-75
2022/05/23 03:33:38;;;;;;;6.60;3.30;;;;;;;8.86;100.00;100480.06;4946523;28;20224;-74
2022/05/23 03:36:08;;;;;;;4.03;2.97;;;;;;;8.85;100.00;100480.13;4955675;28;20208;-75
2022/05/23 03:38:36;;;;;;;3.87;3.10;;;;;;;8.97;100.00;100484.19;4960417;28;20631;-75
2022/05/23 03:41:05;;;;;;;3.57;3.27;;;;;;;8.99;100.00;100477.19;4949281;29;20270;-74
2022/05/23 03:43:32;;;;;;;3.53;3.17;;;;;;;8.92;100.00;100479.09;4971792;28;20236;-75
2022/05/23 03:46:04;;;;;;;4.17;2.97;;;;;;;8.91;100.00;100475.63;4949048;28;20233;-75
2022/05/23 03:48:34;;;;;;;6.33;3.57;;;;;;;8.89;100.00;100481.75;4960601;28;20201;-74
2022/05/23 03:51:02;;;;;;;4.07;3.30;;;;;;;8.93;100.00;100490.34;4956966;28;20274;-74
2022/05/23 03:53:29;;;;;;;4.17;3.03;;;;;;;9.09;100.00;100492.59;4928898;29;20215;-74
2022/05/23 03:55:59;;;;;;;7.50;3.07;;;;;;;9.02;100.00;100495.34;4940585;28;20212;-74
2022/05/23 03:58:28;;;;;;;4.07;3.07;;;;;;;9.04;100.00;100507.44;4947301;28;20203;-74
2022/05/23 04:01:15;;;;;;;4.97;3.43;;;;;;;9.02;100.00;100501.44;4964471;28;20285;-75
2022/05/23 04:03:45;;;;;;;6.33;2.87;;;;;;;9.12;100.00;100506.41;4941229;28;20225;-74
2022/05/23 04:06:12;;;;;;;5.10;3.23;;;;;;;9.17;100.00;100501.97;4946984;28;20720;-74
2022/05/23 04:09:00;;;;;;;4.00;3.03;;;;;;;9.26;100.00;100496.56;4927656;29;20207;-75
2022/05/23 04:11:27;;;;;;;4.57;3.53;;;;;;;9.32;100.00;100495.56;4927797;28;20198;-74
2022/05/23 04:13:53;;;;;;;3.63;3.03;;;;;;;9.44;100.00;100487.47;4935271;29;20246;-74
2022/05/23 04:16:23;;;;;;;3.50;3.20;;;;;;;9.57;100.00;100491.50;4937941;28;20699;-74
2022/05/23 04:18:51;;;;;;;3.13;2.83;;;;;;;9.62;100.00;100494.84;4953814;28;20200;-74
2022/05/23 04:21:17;;;;;;;4.10;3.30;;;;;;;9.73;100.00;100493.72;4959290;28;20663;-75
2022/05/23 04:23:47;;;;;;;4.60;3.40;;;;;;;9.85;100.00;100499.47;4948285;29;20216;-74
2022/05/23 04:26:14;;;;;;;5.77;3.50;;;;;;;9.95;100.00;100504.44;4954136;28;20237;-75
2022/05/23 04:28:41;;;;;;;3.67;2.90;;;;;;;10.04;100.00;100509.41;4952719;28;20204;-74
2022/05/23 04:31:10;;;;;;;3.23;2.77;;;;;;;10.18;100.00;100504.72;4940156;28;20257;-75
2022/05/23 04:36:55;;;;;;;6.10;3.23;;;;;;;10.41;100.00;100501.53;4954384;28;20281;-70
2022/05/23 04:39:34;;;;;;;8.70;2.63;;;;;;;10.47;100.00;100504.88;4944699;28;20206;-71
2022/05/23 04:42:03;;;;;;;5.03;2.70;;;;;;;10.54;100.00;100501.19;4953960;28;20304;-71
2022/05/23 04:44:31;;;;;;;3.93;2.80;;;;;;;10.59;100.00;100500.16;4949739;28;20214;-71
2022/05/23 04:49:49;;;;;;;7.43;2.70;;;;;;;10.78;100.00;100497.88;4935749;29;20202;-71
2022/05/23 04:52:38;;;;;;;3.83;2.57;;;;;;;10.88;100.00;100489.78;4938373;29;20246;-71
2022/05/23 04:55:06;;;;;;;3.37;2.90;;;;;;;10.98;100.00;100486.84;4927562;29;20283;-68
2022/05/23 04:57:33;;;;;;;8.23;2.57;;;;;;;11.05;100.00;100489.28;4933098;29;20195;-70
2022/05/23 05:00:00;;;;;;;4.87;2.50;;;;;;;11.22;100.00;100494.84;4934251;29;20203;-70
2022/05/23 05:02:31;;;;;;;2.90;2.57;;;;;;;11.28;100.00;100488.59;4950508;28;20611;-71
2022/05/23 05:05:00;;;;;;;2.90;2.30;;;;;;;11.36;100.00;100490.06;4945060;28;20908;-70
2022/05/23 05:07:26;;;;;;;2.57;2.13;;;;;;;11.45;100.00;100488.03;4938110;29;20201;-69
2022/05/23 05:09:57;;;;;;;3.80;2.30;;;;;;;11.57;100.00;100492.84;4947392;28;20579;-69
2022/05/23 05:12:23;;;;;;;2.27;2.07;;;;;;;11.63;100.00;100487.44;4951319;28;20234;-71
2022/05/23 05:14:50;;;;;;;2.50;2.30;;;;;;;11.68;98.87;100487.28;4934390;29;20598;-71
2022/05/23 05:17:18;;;;;;;4.20;2.20;;;;;;;11.74;97.54;100490.56;4938758;28;20253;-70
2022/05/23 05:19:45;;;;;;;3.30;2.17;;;;;;;11.83;96.51;100489.41;4933793;28;20199;-71
2022/05/23 05:22:31;;;;;;;3.27;2.30;;;;;;;11.91;96.02;100481.34;4952672;28;20234;-71
2022/05/23 05:25:19;;;;;;;2.40;2.10;;;;;;;12.04;97.78;100477.41;4958020;28;20207;-70
2022/05/23 05:28:01;;;;;;;3.10;1.70;;;;;;;12.13;96.22;100481.44;4953607;28;20394;-71
2022/05/23 05:30:27;;;;;;;3.57;2.00;;;;;;;12.24;95.47;100466.25;4952629;28;20568;-70
2022/05/23 05:32:59;;;;;;;4.30;2.17;;;;;;;12.38;96.72;100472.75;4934620;29;20229;-70
2022/05/23 05:35:33;;;;;;;2.70;1.87;;;;;;;12.50;94.68;100469.69;4933521;29;20212;-72
2022/05/23 05:38:04;;;;;;;2.50;1.93;;;;;;;12.62;94.91;100471.00;4956001;28;20278;-72
2022/05/23 05:40:34;;;;;;;2.47;1.90;;;;;;;12.67;92.75;100466.44;4948189;28;20206;-72
2022/05/23 05:43:05;;;;;;;2.33;2.00;;;;;;;12.76;92.66;100458.25;4935222;29;20281;-71
2022/05/23 05:45:34;;;;;;;1.77;1.60;;;;;;;12.88;91.02;100455.16;4934470;29;20227;-72
2022/05/23 05:48:16;;;;;;;3.97;1.77;;;;;;;12.93;90.15;100449.78;4928572;29;20199;-73
2022/05/23 05:50:44;;;;;;;2.83;1.83;;;;;;;13.01;90.05;100449.47;4948158;28;20198;-72
2022/05/23 05:53:21;;;;;;;1.67;1.57;;;;;;;13.10;88.95;100454.31;4934467;28;20348;-71
2022/05/23 05:55:51;;;;;;;1.47;1.37;;;;;;;13.23;89.47;100442.47;4935979;28;20737;-73
2022/05/23 05:58:19;;;;;;;2.40;1.50;;;;;;;13.35;89.14;100451.63;4931228;29;20257;-72
2022/05/23 06:00:48;;;;;;;2.10;1.40;;;;;;;13.54;86.30;100456.94;4934592;29;20294;-71
2022/05/23 06:03:16;;;;;;;3.00;1.30;;;;;;;13.66;85.63;100454.75;4930563;29;20218;-72
2022/05/23 06:11:41;;;;;;;2.50;1.40;;;;;;;13.94;84.75;100443.97;4873653;29;20201;-72
2022/05/23 06:14:13;;;;;;;2.53;1.43;;;;;;;14.08;85.37;100431.09;4929216;29;20232;-72
2022/05/23 06:16:42;;;;;;;2.23;1.20;;;;;;;14.24;83.01;100435.69;4934676;29;20193;-72
2022/05/23 06:19:19;;;;;;;2.87;1.40;;;;;;;14.37;80.39;100432.44;4928682;29;20238;-72
2022/05/23 06:21:58;;;;;;;2.20;1.10;;;;;;;14.52;79.04;100432.66;4933749;29;20210;-72
2022/05/23 06:24:26;;;;;;;1.40;1.30;;;;;;;14.64;80.06;100429.50;4929503;29;20313;-72
2022/05/23 06:27:01;;;;;;;1.83;1.37;;;;;;;14.72;80.29;100431.78;4949573;29;20195;-72
2022/05/23 06:29:46;;;;;;;2.37;1.67;;;;;;;14.83;79.79;100428.63;4951099;29;20276;-72
2022/05/23 06:32:30;;;;;;;1.27;1.13;;;;;;;14.98;78.46;100427.94;4933145;29;20219;-70
2022/05/23 06:34:56;;;;;;;1.97;1.20;;;;;;;15.14;77.50;100423.66;4932467;29;20229;-73
2022/05/23 06:37:24;;;;;;;1.60;1.37;;;;;;;15.36;77.26;100430.50;4931688;29;20256;-71
2022/05/23 06:39:55;;;;;;;1.83;1.30;;;;;;;15.48;76.77;100429.88;4936624;29;20234;-72
2022/05/23 06:42:51;;;;;;;1.13;1.03;;;;;;;15.64;75.15;100429.13;4957228;28;20232;-72
2022/05/23 06:45:37;;;;;;;1.37;1.17;;;;;;;15.66;70.25;100430.72;4951130;28;20579;-73
2022/05/23 06:48:27;;;;;;;1.17;0.90;;;;;;;15.85;70.34;100424.59;4946438;29;20217;-72
2022/05/23 06:51:03;;;;;;;1.17;1.07;;;;;;;15.88;72.50;100424.41;4933263;29;20207;-73
2022/05/23 06:53:36;;;;;;;3.13;1.10;;;;;;;16.03;72.17;100423.63;4933379;28;20656;-71
2022/05/23 06:56:25;;;;;;;1.47;1.13;;;;;;;16.09;67.50;100427.69;4948741;29;20220;-72
2022/05/23 06:58:57;;;;;;;1.97;1.10;;;;;;;16.15;68.95;100431.81;4932036;29;20210;-71
2022/05/23 07:01:29;;;;;;;1.10;1.00;;;;;;;16.26;65.99;100429.47;4946574;28;20304;-73
2022/05/23 07:04:12;;;;;;;1.37;1.27;;;;;;;16.43;64.78;100433.84;4939041;28;20617;-72
2022/05/23 07:12:24;;;;;;;1.40;0.83;;;;;;;16.65;61.65;100426.44;4924573;28;20346;-72
2022/05/23 07:14:54;;;;;;;2.50;0.93;;;;;;;16.67;60.18;100418.47;4937950;28;20293;-73
2022/05/23 07:17:21;;;;;;;2.60;0.90;;;;;;;16.79;60.19;100420.44;4933506;28;20205;-72
2022/05/23 07:20:09;;;;;;;1.27;1.00;;;;;;;16.99;61.88;100419.38;4936579;28;20210;-72
2022/05/23 07:22:35;;;;;;;0.77;0.77;;;;;;;17.08;60.17;100414.50;4951713;28;20719;-72
2022/05/23 07:25:02;;;;;;;1.97;0.83;;;;;;;17.21;55.90;100418.16;4936758;29;20211;-72
2022/05/23 07:27:31;;;;;;;2.83;0.93;;;;;;;17.26;58.06;100416.09;4931694;28;20602;-72
2022/05/23 07:29:59;;;;;;;1.63;1.00;;;;;;;17.45;56.01;100426.44;4946727;28;21120;-71
2022/05/23 07:32:29;;;;;;;1.83;1.10;;;;;;;17.49;57.81;100421.84;4934408;28;20234;-72
2022/05/23 07:34:56;;;;;;;2.80;1.20;;;;;;;17.58;58.14;100406.31;4934513;28;20289;-72
2022/05/23 07:37:23;;;;;;;1.47;0.80;;;;;;;17.67;55.65;100414.63;4933593;29;20286;-72
2022/05/23 07:39:49;;;;;;;2.10;1.00;;;;;;;17.78;54.63;100420.09;4931838;28;20289;-73
2022/05/23 07:42:31;;;;;;;0.93;0.87;;;;;;;17.84;56.19;100411.00;4930314;29;20233;-73
2022/05/23 07:45:00;;;;;;;0.70;0.70;;;;;;;17.91;54.78;100410.56;4932645;29;20199;-73
2022/05/23 07:47:27;;;;;;;3.07;1.03;;;;;;;18.01;55.91;100408.22;4930143;29;20571;-72
2022/05/23 07:50:11;;;;;;;1.97;0.90;;;;;;;18.09;54.58;100405.13;4935134;29;20234;-73
2022/05/23 07:52:38;;;;;;;0.70;0.70;;;;;;;18.13;54.66;100396.06;4931769;29;20631;-72
2022/05/23 08:00:42;;;;;;;1.53;0.60;;;;;;;18.40;52.70;100390.88;4932976;29;20203;-73
2022/05/23 08:03:16;;;;;;;1.43;1.00;;;;;;;18.48;54.12;100387.75;4928472;29;20271;-73
2022/05/23 08:05:47;;;;;;;0.80;0.80;;;;;;;18.51;54.87;100385.75;4928182;28;20199;-73
2022/05/23 08:08:15;;;;;;;3.23;0.80;;;;;;;18.51;54.15;100379.63;4931590;29;20656;-72
2022/05/23 08:10:43;;;;;;;0.63;0.60;;;;;;;18.55;53.46;100379.34;4931233;29;20203;-73
2022/05/23 08:13:10;;;;;;;1.40;0.90;;;;;;;18.54;51.24;100382.94;4935077;29;20226;-71
2022/05/23 08:15:39;;;;;;;1.40;0.90;;;;;;;18.65;50.88;100378.78;4932729;29;20199;-73
2022/05/23 08:18:12;;;;;;;1.87;0.90;;;;;;;18.80;52.15;100371.66;4924681;29;20198;-72
2022/05/23 08:20:46;;;;;;;3.50;0.90;;;;;;;18.83;54.21;100372.31;4932389;29;20195;-72
2022/05/23 08:23:13;;;;;;;0.87;0.63;;;;;;;18.80;50.72;100374.28;4935388;29;20726;-72
2022/05/23 08:25:50;;;;;;;1.03;0.80;;;;;;;18.90;53.06;100370.13;4952735;28;20249;-73
2022/05/23 08:28:19;;;;;;;1.63;0.83;;;;;;;18.93;52.48;100369.94;4936707;29;20199;-73
2022/05/23 08:30:45;;;;;;;0.70;0.70;;;;;;;18.91;52.08;100370.03;4936484;29;20199;-73
2022/05/23 08:33:35;;;;;;;1.10;0.87;;;;;;;18.94;50.34;100362.84;4944733;29;20230;-73
2022/05/23 08:36:18;;;;;;;1.40;0.90;;;;;;;19.02;52.85;100352.66;4934789;29;20403;-71
2022/05/23 08:38:45;;;;;;;0.80;0.80;;;;;;;19.15;49.92;100357.97;4952820;29;20198;-73
2022/05/23 08:41:23;;;;;;;1.33;0.70;;;;;;;19.23;52.57;100359.16;4935490;29;20207;-72
2022/05/23 08:44:05;;;;;;;1.80;0.93;;;;;;;19.29;48.63;100361.41;4935355;29;20226;-72
2022/05/23 08:46:47;;;;;;;1.20;0.90;;;;;;;19.37;50.68;100352.09;4935521;29;20205;-72
2022/05/23 08:49:24;;;;;;;1.87;0.77;;;;;;;19.42;50.73;100353.47;4935806;29;20210;-72
2022/05/23 08:52:05;;;;;;;0.93;0.70;;;;;;;19.40;50.42;100358.03;4931934;29;20214;-73
2022/05/23 08:54:42;;;;;;;1.13;0.80;;;;;;;19.48;49.67;100350.41;4937417;29;20811;-73
2022/05/23 08:57:43;;;;;;;1.13;0.70;;;;;;;19.60;52.22;100338.16;4949008;29;20211;-72
2022/05/23 09:00:15;;;;;;;1.23;0.67;;;;;;;19.64;52.01;100334.34;4935096;29;20207;-73
2022/05/23 09:02:49;;;;;;;1.77;0.60;;;;;;;19.71;49.14;100328.66;4929263;29;20251;-73
2022/05/23 09:05:32;;;;;;;1.07;0.80;;;;;;;19.83;50.11;100323.38;4937588;29;20195;-73
2022/05/23 09:08:02;;;;;;;2.07;0.90;;;;;;;19.95;48.74;100334.91;4951112;28;20567;-72
2022/05/23 09:10:33;;;;;;;0.80;0.80;;;;;;;20.06;48.35;100318.28;4947770;28;20308;-72
2022/05/23 09:13:00;;;;;;;2.00;0.90;;;;;;;20.22;47.70;100310.91;4948732;29;20234;-71
2022/05/23 09:15:27;;;;;;;0.83;0.80;;;;;;;20.29;47.09;100311.34;4942430;29;20305;-73
2022/05/23 09:17:57;;;;;;;1.00;0.90;;;;;;;20.45;49.86;100302.28;4952377;29;20206;-72
2022/05/23 09:20:34;;;;;;;0.73;0.73;;;;;;;20.43;49.48;100305.03;4945550;29;20286;-72
2022/05/23 09:23:06;;;;;;;2.10;0.70;;;;;;;20.34;49.24;100300.41;4952141;29;20222;-73
2022/05/23 09:25:32;;;;;;;1.50;0.60;;;;;;;20.33;47.98;100296.06;4952188;28;20198;-72
2022/05/23 09:28:13;;;;;;;1.53;0.90;;;;;;;20.39;48.42;100296.47;4952187;29;20206;-72
2022/05/23 09:30:45;;;;;;;1.87;0.73;;;;;;;20.42;48.13;100290.09;4950745;29;20195;-73
2022/05/23 09:33:15;;;;;;;1.93;0.80;;;;;;;20.53;47.22;100281.41;4950449;28;20242;-73
2022/05/23 09:35:54;;;;;;;2.67;1.17;;;;;;;20.45;46.83;100275.81;4951617;29;20206;-73
2022/05/23 09:38:23;;;;;;;1.10;1.00;;;;;;;20.40;46.66;100276.13;4947446;29;20203;-73
2022/05/23 09:41:01;;;;;;;1.07;0.90;;;;;;;20.34;44.65;100280.06;4933288;29;20277;-72
2022/05/23 09:49:11;;;;;;;0.90;0.80;;;;;;;20.39;47.34;100250.63;4949032;29;20289;-72
2022/05/23 09:51:50;;;;;;;4.43;1.20;;;;;;;20.35;45.48;100255.31;4951497;29;20675;-73
2022/05/23 09:54:20;;;;;;;1.10;0.80;;;;;;;20.43;47.59;100254.75;4950206;29;20222;-73
2022/05/23 09:56:48;;;;;;;1.30;0.80;;;;;;;20.55;47.44;100255.66;4952190;29;20722;-73
2022/05/23 09:59:24;;;;;;;1.60;1.08;;;;;;;20.59;46.46;100252.63;4951545;29;20203;-73
2022/05/23 10:01:53;;;;;;;0.87;0.70;;;;;;;20.77;49.19;100239.88;4949388;29;20202;-73
2022/05/23 10:04:25;;;;;;;1.10;1.00;;;;;;;20.78;46.70;100256.63;4947986;29;20719;-72
2022/05/23 10:06:52;;;;;;;0.70;0.70;;;;;;;20.90;46.34;100254.84;4950301;29;20206;-72
2022/05/23 10:09:28;;;;;;;1.20;0.90;;;;;;;21.02;47.50;100247.75;4945593;29;20213;-73
2022/05/23 10:12:22;;;;;;;0.70;0.70;;;;;;;21.04;45.37;100252.00;4951027;29;20250;-72
2022/05/23 10:14:51;;;;;;;1.33;1.00;;;;;;;21.09;47.22;100244.56;4951209;29;20205;-73
2022/05/23 10:17:27;;;;;;;1.05;0.82;;;;;;;21.10;47.53;100240.09;4951438;29;20210;-73
2022/05/23 10:19:54;;;;;;;1.13;1.00;;;;;;;21.09;46.51;100233.94;4950843;29;20216;-70
2022/05/23 10:22:22;;;;;;;1.67;0.90;;;;;;;21.08;46.49;100234.91;4950351;29;20250;-70
2022/05/23 10:24:55;;;;;;;1.30;0.70;;;;;;;21.06;46.46;100234.19;4948037;28;20634;-69
2022/05/23 10:27:35;;;;;;;0.93;0.80;;;;;;;21.08;47.28;100221.66;4950439;28;20538;-70
2022/05/23 10:30:05;;;;;;;0.98;0.88;;;;;;;21.05;47.10;100213.91;4935473;29;20206;-69
2022/05/23 10:32:41;;;;;;;1.45;0.80;;;;;;;21.20;47.02;100217.22;4925087;29;20262;-70
2022/05/23 10:35:16;;;;;;;3.63;0.90;;;;;;;21.28;47.60;100213.97;4947138;28;20209;-68
2022/05/23 10:37:44;;;;;;;1.20;0.80;;;;;;;21.30;44.33;100218.19;4949846;28;20229;-70
2022/05/23 10:43:09;;;;;;;4.15;1.00;;;;;;;21.38;45.64;100222.88;4948833;29;20713;-73
2022/05/23 10:45:44;;;;;;;2.00;1.00;;;;;;;21.47;45.87;100205.44;4947866;28;20207;-73
2022/05/23 10:48:32;;;;;;;1.35;0.80;;;;;;;21.55;47.52;100197.75;4945384;28;20273;-73
2022/05/23 10:51:07;;;;;;;0.70;0.70;;;;;;;21.61;47.06;100202.56;4946124;29;20297;-71
2022/05/23 10:53:45;;;;;;;0.88;0.68;;;;;;;21.62;46.82;100192.78;4950207;29;20362;-73
2022/05/23 10:56:25;;;;;;;1.20;0.80;;;;;;;21.66;47.39;100189.78;4947311;29;20203;-72
2022/05/23 10:58:53;;;;;;;0.70;0.70;;;;;;;21.71;46.57;100178.81;4949830;29;20209;-71
2022/05/23 11:01:33;;;;;;;1.70;0.80;;;;;;;21.73;46.71;100164.44;4943078;29;20699;-69
2022/05/23 11:04:11;;;;;;;1.45;0.95;;;;;;;21.77;46.50;100172.16;4945798;29;20230;-70
2022/05/23 11:07:02;;;;;;;1.35;0.98;;;;;;;21.86;43.99;100169.63;4946268;28;20203;-70
2022/05/23 11:09:37;;;;;;;1.98;0.90;;;;;;;21.94;43.09;100163.69;4945810;28;20211;-70
2022/05/23 11:12:19;;;;;;;0.80;0.70;;;;;;;22.09;42.64;100158.91;4944873;28;20564;-69
2022/05/23 11:15:06;;;;;;;1.05;0.68;;;;;;;22.27;44.89;100143.34;4948577;28;20632;-69
2022/05/23 11:17:40;;;;;;;3.60;1.10;;;;;;;22.32;46.04;100138.47;4948284;28;20571;-70
2022/05/23 11:20:16;;;;;;;2.83;0.90;;;;;;;22.44;46.59;100136.59;4954289;28;20205;-68
2022/05/23 11:22:46;;;;;;;1.25;0.80;;;;;;;22.61;44.97;100146.66;4948939;28;20580;-70
2022/05/23 11:25:28;;;;;;;0.80;0.80;;;;;;;22.58;41.42;100148.72;4951432;28;20680;-70
2022/05/23 11:33:46;;;;;;;4.03;0.90;;;;;;;22.73;42.17;100131.50;4949495;29;20250;-69
2022/05/23 11:36:24;;;;;;;1.65;0.95;;;;;;;22.63;42.87;100120.78;4949920;28;20235;-69
2022/05/23 11:38:52;;;;;;;1.75;0.80;;;;;;;22.59;41.57;100130.00;4949853;29;20208;-70
2022/05/23 11:41:34;;;;;;;2.90;0.98;;;;;;;22.69;41.90;100117.63;4949469;28;20261;-69
2022/05/23 11:44:13;;;;;;;2.97;0.85;;;;;;;22.73;42.55;100115.56;4950243;29;20706;-70
2022/05/23 11:47:05;;;;;;;1.05;0.98;;;;;;;22.76;43.30;100110.00;4950616;28;20210;-69
2022/05/23 11:49:43;;;;;;;0.88;0.80;;;;;;;22.65;43.26;100115.34;4948394;28;20203;-70
2022/05/23 11:52:24;;;;;;;1.23;1.00;;;;;;;22.58;40.58;100106.22;4949625;29;20207;-69
2022/05/23 11:54:51;;;;;;;1.38;1.27;;;;;;;22.52;41.50;100104.94;4949590;28;20199;-70
2022/05/23 11:57:31;;;;;;;1.75;0.95;;;;;;;22.62;43.20;100095.22;4952412;28;20207;-70
2022/05/23 12:00:28;;;;;;;1.52;1.13;;;;;;;22.48;42.32;100083.09;4952514;28;20210;-70
2022/05/23 12:03:10;;;;;;;1.80;0.90;;;;;;;22.49;41.38;100087.44;4949054;28;20253;-69
2022/05/23 12:05:37;;;;;;;1.35;1.05;;;;;;;22.78;42.02;100076.16;4953288;28;20236;-70
2022/05/23 12:08:32;;;;;;;1.63;0.93;;;;;;;22.58;41.16;100074.34;4944146;29;20634;-70
2022/05/23 12:11:01;;;;;;;0.70;0.70;;;;;;;22.60;43.22;100064.44;4954817;28;20202;-70
2022/05/23 12:13:40;;;;;;;1.65;0.80;;;;;;;22.43;42.50;100079.16;4957918;28;20277;-70
2022/05/23 12:16:39;;;;;;;2.40;0.98;;;;;;;22.37;42.75;100061.06;4957141;28;20202;-72
2022/05/23 12:19:28;;;;;;;1.25;1.00;;;;;;;22.51;43.78;100055.44;4952559;28;20207;-72
2022/05/23 12:22:13;;;;;;;1.45;0.90;;;;;;;22.75;41.39;100052.50;4958227;28;20235;-73
2022/05/23 12:24:58;;;;;;;1.83;1.00;;;;;;;22.96;43.38;100044.47;4946805;28;20211;-72
2022/05/23 12:27:29;;;;;;;1.20;0.82;;;;;;;23.11;42.37;100038.81;4952366;28;20222;-72
2022/05/23 12:30:33;;;;;;;1.80;1.00;;;;;;;23.35;43.79;100023.34;4953147;29;20210;-72
2022/05/23 12:33:09;;;;;;;1.80;1.00;;;;;;;23.66;42.48;100019.72;4950870;28;20241;-72
2022/05/23 12:35:49;;;;;;;1.00;0.90;;;;;;;23.86;41.57;100012.63;4952811;29;20730;-73
2022/05/23 12:38:25;;;;;;;2.33;0.88;;;;;;;23.87;40.49;100015.16;4951434;28;20210;-71
2022/05/23 12:41:00;;;;;;;2.40;0.80;;;;;;;24.03;42.02;100011.06;4951579;29;20203;-73
2022/05/23 12:43:41;;;;;;;0.98;0.80;;;;;;;24.17;38.06;100013.31;4952065;29;20338;-72
2022/05/23 12:46:22;;;;;;;2.38;1.20;;;;;;;24.19;40.09;100011.34;4951328;28;20258;-72
2022/05/23 12:49:10;;;;;;;2.08;0.90;;;;;;;24.12;41.05;100008.41;4947650;28;20203;-73
2022/05/23 12:51:45;;;;;;;1.20;1.10;;;;;;;23.85;40.47;99994.97;4948139;29;20296;-72